createdAt,value
2023-01-06T00:00:37.446Z,98125.69
2023-01-06T00:03:04.544Z,98118.81
2023-01-06T00:05:31.549Z,98119.06
2023-01-06T00:07:59.303Z,98110.97
2023-01-06T00:10:26.751Z,98112.97
2023-01-06T00:12:54.166Z,98119.38
2023-01-06T00:15:21.369Z,98108.16
2023-01-06T00:17:48.218Z,98112.00
2023-01-06T00:20:15.491Z,98100.03
2023-01-06T00:22:42.908Z,98105.63
2023-01-06T00:25:10.673Z,98103.13
2023-01-06T00:27:38.871Z,98101.56
2023-01-06T00:30:07.706Z,98099.03
2023-01-06T00:32:35.229Z,98099.03
2023-01-06T00:35:02.853Z,98104.38
2023-01-06T00:37:29.732Z,98101.34
2023-01-06T00:39:57.119Z,98098.06
2023-01-06T00:42:25.037Z,98097.28
2023-01-06T00:44:52.391Z,98103.16
2023-01-06T00:47:21.024Z,98102.91
2023-01-06T00:49:48.355Z,98094.97
2023-01-06T00:52:15.464Z,98100.81
2023-01-06T00:54:43.285Z,98095.41
2023-01-06T00:57:10.549Z,98092.31
2023-01-06T00:59:37.749Z,98094.84
2023-01-06T01:02:05.113Z,98094.84
2023-01-06T01:04:32.028Z,98090.00
2023-01-06T01:06:59.156Z,98087.47
2023-01-06T01:09:29.486Z,98075.78
2023-01-06T01:12:14.795Z,98074.50
2023-01-06T01:14:47.705Z,98077.31
2023-01-06T01:17:23.304Z,98075.31
2023-01-06T01:19:51.802Z,98074.50
2023-01-06T01:22:18.592Z,98071.41
2023-01-06T01:24:45.406Z,98083.22
2023-01-06T01:27:12.453Z,98078.88
2023-01-06T01:29:39.283Z,98089.59
2023-01-06T01:32:06.512Z,98090.63
2023-01-06T01:34:33.654Z,98082.22
2023-01-06T01:37:01.097Z,98075.34
2023-01-06T01:39:29.621Z,98072.53
2023-01-06T01:41:57.927Z,98067.72
2023-01-06T01:44:49.767Z,98065.19
2023-01-06T01:47:37.029Z,98059.59
2023-01-06T01:50:13.153Z,98054.75
2023-01-06T01:52:42.790Z,98051.44
2023-01-06T01:55:11.964Z,98051.94
2023-01-06T01:58:05.254Z,98052.69
2023-01-06T02:00:32.049Z,98047.09
2023-01-06T02:02:59.623Z,98038.19
2023-01-06T02:05:28.404Z,98044.84
2023-01-06T02:07:58.761Z,98042.78
2023-01-06T02:10:26.237Z,98037.47
2023-01-06T02:12:58.033Z,98037.47
2023-01-06T02:15:30.836Z,98034.94
2023-01-06T02:18:12.978Z,98034.94
2023-01-06T02:21:00.228Z,98029.59
2023-01-06T02:23:47.111Z,98028.84
2023-01-06T02:26:42.014Z,98021.19
2023-01-06T02:29:48.301Z,98024.28
2023-01-06T02:32:37.164Z,98021.19
2023-01-06T02:35:22.459Z,98012.28
2023-01-06T02:38:27.228Z,98017.13
2023-01-06T02:41:00.573Z,98010.25
2023-01-06T02:43:42.727Z,98014.59
2023-01-06T02:46:27.949Z,98014.88
2023-01-06T02:49:24.083Z,98021.25
2023-01-06T02:52:12.079Z,98026.34
2023-01-06T02:54:59.076Z,98018.69
2023-01-06T02:57:42.344Z,98011.81
2023-01-06T03:00:22.974Z,98009.31
2023-01-06T03:03:00.164Z,98002.94
2023-01-06T03:05:29.183Z,98010.06
2023-01-06T03:07:57.836Z,98002.94
2023-01-06T03:10:27.734Z,97998.84
2023-01-06T03:13:12.923Z,97994.75
2023-01-06T03:15:39.769Z,97991.72
2023-01-06T03:18:07.579Z,97997.56
2023-01-06T03:20:36.163Z,97990.69
2023-01-06T03:23:03.671Z,97993.78
2023-01-06T03:25:30.673Z,97994.53
2023-01-06T03:27:58.403Z,97988.94
2023-01-06T03:30:34.767Z,97995.31
2023-01-06T03:33:22.844Z,97983.31
2023-01-06T03:36:06.935Z,97984.09
2023-01-06T03:38:57.873Z,97978.47
2023-01-06T03:41:53.727Z,97972.88
2023-01-06T03:44:38.323Z,97971.88
2023-01-06T03:47:09.409Z,97970.59
2023-01-06T03:50:07.393Z,97971.34
2023-01-06T03:52:39.721Z,97960.13
2023-01-06T03:55:14.646Z,97957.59
2023-01-06T03:57:53.120Z,97961.16
2023-01-06T04:00:28.421Z,97960.66
2023-01-06T04:03:01.893Z,97959.13
2023-01-06T04:05:29.298Z,97960.66
2023-01-06T04:07:58.368Z,97954.53
2023-01-06T04:10:25.402Z,97951.72
2023-01-06T04:12:56.321Z,97956.56
2023-01-06T04:15:32.725Z,97957.09
2023-01-06T04:18:01.905Z,97962.72
2023-01-06T04:20:31.745Z,97949.22
2023-01-06T04:23:08.833Z,97954.81
2023-01-06T04:25:38.522Z,97959.16
2023-01-06T04:28:16.164Z,97956.56
2023-01-06T04:30:44.079Z,97945.34
2023-01-06T04:33:11.533Z,97947.66
2023-01-06T04:35:40.030Z,97940.03
2023-01-06T04:38:07.188Z,97935.97
2023-01-06T04:40:33.956Z,97929.56
2023-01-06T04:43:06.752Z,97931.63
2023-01-06T04:45:35.180Z,97924.47
2023-01-06T04:48:02.191Z,97913.25
2023-01-06T04:50:28.988Z,97907.63
2023-01-06T04:52:55.822Z,97910.72
2023-01-06T04:55:23.334Z,97908.69
2023-01-06T04:57:50.232Z,97909.69
2023-01-06T05:00:17.855Z,97898.75
2023-01-06T05:02:44.785Z,97903.06
2023-01-06T05:05:12.073Z,97900.56
2023-01-06T05:07:39.085Z,97907.47
2023-01-06T05:10:08.043Z,97893.19
2023-01-06T05:12:35.748Z,97906.19
2023-01-06T05:15:02.884Z,97899.59
2023-01-06T05:17:30.055Z,97894.53
2023-01-06T05:19:56.988Z,97892.47
2023-01-06T05:22:23.820Z,97882.28
2023-01-06T05:24:50.670Z,97891.47
2023-01-06T05:27:17.415Z,97875.66
2023-01-06T05:29:44.375Z,97888.69
2023-01-06T05:32:11.412Z,97894.53
2023-01-06T05:34:38.551Z,97886.41
2023-01-06T05:37:06.015Z,97881.81
2023-01-06T05:39:32.786Z,97877.25
2023-01-06T05:41:59.519Z,97886.69
2023-01-06T05:44:26.346Z,97884.88
2023-01-06T05:46:53.385Z,97883.63
2023-01-06T05:49:20.170Z,97895.91
2023-01-06T05:51:46.980Z,97878.53
2023-01-06T05:54:14.168Z,97885.97
2023-01-06T05:56:41.051Z,97882.38
2023-01-06T05:59:07.886Z,97877.28
2023-01-06T06:01:34.714Z,97880.84
2023-01-06T06:04:01.672Z,97881.88
2023-01-06T06:06:29.943Z,97878.28
2023-01-06T06:08:57.629Z,97877.03
2023-01-06T06:11:24.393Z,97887.25
2023-01-06T06:13:53.661Z,97879.59
2023-01-06T06:16:22.954Z,97873.72
2023-01-06T06:18:55.782Z,97876.78
2023-01-06T06:21:25.567Z,97879.31
2023-01-06T06:23:54.348Z,97875.25
2023-01-06T06:26:22.100Z,97880.88
2023-01-06T06:28:48.948Z,97886.50
2023-01-06T06:31:22.976Z,97890.84
2023-01-06T06:33:54.632Z,97892.38
2023-01-06T06:36:21.880Z,97889.56
2023-01-06T06:38:50.388Z,97892.63
2023-01-06T06:41:18.164Z,97896.69
2023-01-06T06:43:45.039Z,97899.78
2023-01-06T06:46:12.131Z,97898.22
2023-01-06T06:48:39.205Z,97895.44
2023-01-06T06:51:17.168Z,97894.16
2023-01-06T06:53:44.716Z,97899.50
2023-01-06T06:56:12.383Z,97908.69
2023-01-06T06:58:39.726Z,97907.94
2023-01-06T07:01:11.358Z,97900.81
2023-01-06T07:03:39.178Z,97904.88
2023-01-06T07:06:11.466Z,97899.75
2023-01-06T07:08:38.383Z,97906.91
2023-01-06T07:11:05.182Z,97904.09
2023-01-06T07:13:32.014Z,97901.78
2023-01-06T07:15:58.866Z,97911.25
2023-01-06T07:18:25.733Z,97905.66
2023-01-06T07:20:55.893Z,97902.84
2023-01-06T07:23:23.760Z,97896.69
2023-01-06T07:25:55.310Z,97892.63
2023-01-06T07:28:22.091Z,97899.78
2023-01-06T07:30:49.180Z,97905.41
2023-01-06T07:33:16.555Z,97895.44
2023-01-06T07:35:43.620Z,97906.94
2023-01-06T07:38:10.373Z,97894.16
2023-01-06T07:40:37.668Z,97899.28
2023-01-06T07:43:06.146Z,97901.31
2023-01-06T07:45:33.753Z,97896.72
2023-01-06T07:48:00.751Z,97899.53
2023-01-06T07:50:28.176Z,97903.38
2023-01-06T07:52:57.912Z,97901.84
2023-01-06T07:55:25.684Z,97894.19
2023-01-06T07:57:52.960Z,97893.66
2023-01-06T08:00:20.132Z,97904.38
2023-01-06T08:02:46.994Z,97913.59
2023-01-06T08:05:14.176Z,97897.00
2023-01-06T08:07:40.950Z,97916.63
2023-01-06T08:10:08.076Z,97903.63
2023-01-06T08:12:34.929Z,97903.13
2023-01-06T08:15:01.661Z,97893.41
2023-01-06T08:17:28.402Z,97904.94
2023-01-06T08:19:55.750Z,97903.13
2023-01-06T08:22:22.638Z,97915.13
2023-01-06T08:24:49.468Z,97918.72
2023-01-06T08:27:16.722Z,97917.69
2023-01-06T08:29:43.502Z,97908.50
2023-01-06T08:32:11.115Z,97913.13
2023-01-06T08:34:38.308Z,97916.16
2023-01-06T08:37:05.243Z,97914.91
2023-01-06T08:39:32.071Z,97928.94
2023-01-06T08:41:58.829Z,97920.00
2023-01-06T08:44:25.672Z,97911.06
2023-01-06T08:46:52.442Z,97911.06
2023-01-06T08:49:19.188Z,97920.53
2023-01-06T08:51:45.971Z,97922.81
2023-01-06T08:54:14.606Z,97920.78
2023-01-06T08:56:43.635Z,97917.19
2023-01-06T08:59:14.056Z,97917.97
2023-01-06T09:01:41.289Z,97921.03
2023-01-06T09:04:09.449Z,97921.53
2023-01-06T09:06:37.300Z,97922.81
2023-01-06T09:09:06.416Z,97923.34
2023-01-06T09:11:33.379Z,97920.78
2023-01-06T09:14:00.231Z,97907.50
2023-01-06T09:16:27.063Z,97916.19
2023-01-06T09:18:53.893Z,97919.78
2023-01-06T09:21:22.725Z,97930.47
2023-01-06T09:23:49.571Z,97930.25
2023-01-06T09:26:17.587Z,97925.88
2023-01-06T09:28:44.914Z,97939.94
2023-01-06T09:31:11.982Z,97941.97
2023-01-06T09:33:39.714Z,97943.03
2023-01-06T09:36:07.397Z,97940.22
2023-01-06T09:38:34.393Z,97944.28
2023-01-06T09:41:40.849Z,97953.72
2023-01-06T09:44:13.809Z,97953.47
2023-01-06T09:46:44.995Z,97947.59
2023-01-06T09:49:45.859Z,97951.44
2023-01-06T09:52:19.605Z,97942.47
2023-01-06T09:55:07.991Z,97943.78
2023-01-06T09:58:06.515Z,97936.38
2023-01-06T10:00:42.451Z,97954.25
2023-01-06T10:03:17.790Z,97946.56
2023-01-06T10:06:18.415Z,97941.72
2023-01-06T10:09:05.745Z,97934.84
2023-01-06T10:11:38.295Z,97934.84
2023-01-06T10:14:14.150Z,97932.53
2023-01-06T10:17:11.691Z,97936.38
2023-01-06T10:19:58.975Z,97931.28
2023-01-06T10:22:31.778Z,97938.16
2023-01-06T10:25:19.761Z,97936.66
2023-01-06T10:28:04.399Z,97941.25
2023-01-06T10:30:44.367Z,97940.50
2023-01-06T10:33:32.143Z,97947.13
2023-01-06T10:36:00.402Z,97937.91
2023-01-06T10:38:32.185Z,97925.91
2023-01-06T10:41:11.978Z,97935.63
2023-01-06T10:43:38.816Z,97940.47
2023-01-06T10:46:05.705Z,97931.03
2023-01-06T10:48:34.343Z,97931.03
2023-01-06T10:51:20.842Z,97932.06
2023-01-06T10:53:48.038Z,97925.38
2023-01-06T10:56:17.112Z,97934.59
2023-01-06T10:58:53.151Z,97932.56
2023-01-06T11:01:25.246Z,97930.00
2023-01-06T11:04:12.836Z,97942.00
2023-01-06T11:06:43.973Z,97944.28
2023-01-06T11:09:33.634Z,97946.09
2023-01-06T11:12:11.324Z,97947.63
2023-01-06T11:14:39.472Z,97944.81
2023-01-06T11:17:26.313Z,97951.97
2023-01-06T11:20:12.077Z,97950.44
2023-01-06T11:22:40.889Z,97949.66
2023-01-06T11:25:19.983Z,97944.53
2023-01-06T11:27:48.196Z,97949.91
2023-01-06T11:30:28.837Z,97946.06
2023-01-06T11:32:56.076Z,97947.34
2023-01-06T11:35:31.043Z,97943.25
2023-01-06T11:38:00.043Z,97943.25
2023-01-06T11:40:32.278Z,97938.16
2023-01-06T11:43:03.607Z,97938.16
2023-01-06T11:45:35.428Z,97933.31
2023-01-06T11:48:05.582Z,97929.19
2023-01-06T11:50:32.647Z,97932.53
2023-01-06T11:53:15.067Z,97937.66
2023-01-06T11:55:42.387Z,97931.78
2023-01-06T11:58:18.008Z,97932.28
2023-01-06T12:00:53.342Z,97932.28
2023-01-06T12:03:20.100Z,97936.09
2023-01-06T12:06:10.260Z,97914.91
2023-01-06T12:08:43.643Z,97906.22
2023-01-06T12:11:15.600Z,97906.22
2023-01-06T12:13:44.779Z,97917.69
2023-01-06T12:16:35.495Z,97913.13
2023-01-06T12:19:04.797Z,97919.72
2023-01-06T12:21:36.732Z,97906.97
2023-01-06T12:24:06.364Z,97905.44
2023-01-06T12:26:35.343Z,97899.31
2023-01-06T12:29:06.320Z,97898.03
2023-01-06T12:31:57.995Z,97901.59
2023-01-06T12:34:37.695Z,97898.28
2023-01-06T12:37:15.982Z,97900.56
2023-01-06T12:39:49.617Z,97900.06
2023-01-06T12:42:28.263Z,97904.13
2023-01-06T12:45:04.840Z,97912.03
2023-01-06T12:47:37.349Z,97901.09
2023-01-06T12:50:17.544Z,97914.63
2023-01-06T12:53:04.814Z,97918.69
2023-01-06T12:56:26.207Z,97912.81
2023-01-06T12:59:27.209Z,97923.25
2023-01-06T13:02:13.349Z,97918.94
2023-01-06T13:04:48.300Z,97923.53
2023-01-06T13:07:40.943Z,97925.84
2023-01-06T13:10:26.103Z,97915.34
2023-01-06T13:13:13.048Z,97916.13
2023-01-06T13:15:44.584Z,97919.69
2023-01-06T13:18:18.831Z,97917.66
2023-01-06T13:20:52.025Z,97916.41
2023-01-06T13:23:38.806Z,97907.72
2023-01-06T13:26:17.689Z,97916.41
2023-01-06T13:29:29.660Z,97906.19
2023-01-06T13:32:30.903Z,97913.09
2023-01-06T13:35:09.762Z,97911.28
2023-01-06T13:37:52.349Z,97914.34
2023-01-06T13:40:27.124Z,97910.50
2023-01-06T13:43:04.209Z,97914.63
2023-01-06T13:45:34.898Z,97929.94
2023-01-06T13:48:08.790Z,97927.88
2023-01-06T13:50:38.397Z,97925.03
2023-01-06T13:53:06.752Z,97918.66
2023-01-06T13:55:39.218Z,97925.81
2023-01-06T13:58:24.412Z,97935.50
2023-01-06T14:01:11.432Z,97925.28
2023-01-06T14:03:42.972Z,97930.91
2023-01-06T14:06:39.952Z,97931.91
2023-01-06T14:09:17.956Z,97930.09
2023-01-06T14:11:45.197Z,97929.34
2023-01-06T14:14:25.210Z,97935.97
2023-01-06T14:16:54.491Z,97935.41
2023-01-06T14:19:29.219Z,97937.19
2023-01-06T14:22:14.074Z,97935.94
2023-01-06T14:24:49.810Z,97933.63
2023-01-06T14:27:16.774Z,97930.81
2023-01-06T14:29:43.722Z,97933.91
2023-01-06T14:32:19.261Z,97939.50
2023-01-06T14:35:01.832Z,97935.41
2023-01-06T14:37:41.554Z,97936.94
2023-01-06T14:40:21.416Z,97933.16
2023-01-06T14:42:50.266Z,97932.88
2023-01-06T14:45:30.244Z,97941.31
2023-01-06T14:48:02.757Z,97941.31
2023-01-06T14:50:46.125Z,97952.81
2023-01-06T14:53:22.183Z,97951.28
2023-01-06T14:55:50.609Z,97952.81
2023-01-06T14:58:33.929Z,97950.25
2023-01-06T15:01:02.313Z,97959.94
2023-01-06T15:03:30.873Z,97960.94
2023-01-06T15:06:20.678Z,97964.78
2023-01-06T15:08:48.246Z,97960.19
2023-01-06T15:11:17.787Z,97968.13
2023-01-06T15:13:45.012Z,97965.31
2023-01-06T15:16:24.002Z,97967.59
2023-01-06T15:18:53.532Z,97975.78
2023-01-06T15:21:22.595Z,97973.97
2023-01-06T15:23:51.907Z,97980.88
2023-01-06T15:26:23.510Z,97988.00
2023-01-06T15:29:05.964Z,97993.34
2023-01-06T15:31:35.069Z,97985.16
2023-01-06T15:34:07.386Z,97993.59
2023-01-06T15:36:35.314Z,97989.53
2023-01-06T15:39:04.937Z,97993.59
2023-01-06T15:41:33.632Z,97985.16
2023-01-06T15:44:02.191Z,97986.72
2023-01-06T15:46:40.032Z,97986.97
2023-01-06T15:49:16.984Z,97988.75
2023-01-06T15:51:54.340Z,97986.91
2023-01-06T15:54:21.393Z,97992.03
2023-01-06T15:56:48.229Z,97993.84
2023-01-06T15:59:15.253Z,98001.47
2023-01-06T16:01:53.895Z,97995.34
2023-01-06T16:04:22.592Z,97997.41
2023-01-06T16:06:50.144Z,98002.50
2023-01-06T16:09:35.797Z,98004.81
2023-01-06T16:12:16.005Z,97992.56
2023-01-06T16:14:46.273Z,97994.84
2023-01-06T16:17:33.334Z,97998.19
2023-01-06T16:20:07.297Z,97998.19
2023-01-06T16:22:36.011Z,97999.72
2023-01-06T16:25:06.207Z,97985.66
2023-01-06T16:27:33.159Z,97989.00
2023-01-06T16:30:20.113Z,97997.41
2023-01-06T16:32:48.124Z,98002.50
2023-01-06T16:35:18.565Z,97993.06
2023-01-06T16:37:45.847Z,98003.03
2023-01-06T16:40:15.097Z,98003.03
2023-01-06T16:42:43.127Z,97999.19
2023-01-06T16:45:22.271Z,98008.88
2023-01-06T16:47:49.653Z,98004.53
2023-01-06T16:50:19.992Z,98000.22
2023-01-06T16:53:20.697Z,98004.28
2023-01-06T16:55:52.443Z,98001.72
2023-01-06T16:58:20.551Z,98002.22
2023-01-06T17:00:52.792Z,98008.06
2023-01-06T17:03:29.815Z,98003.94
2023-01-06T17:05:57.167Z,98001.38
2023-01-06T17:08:32.687Z,97999.06
2023-01-06T17:11:01.608Z,98009.53
2023-01-06T17:13:35.032Z,98003.41
2023-01-06T17:16:11.006Z,97995.22
2023-01-06T17:18:48.296Z,98003.63
2023-01-06T17:21:17.320Z,98000.81
2023-01-06T17:23:44.056Z,98000.34
2023-01-06T17:26:14.871Z,98000.81
2023-01-06T17:28:43.493Z,98000.09
2023-01-06T17:31:31.854Z,98015.38
2023-01-06T17:34:09.161Z,98011.03
2023-01-06T17:36:39.231Z,98020.22
2023-01-06T17:39:37.123Z,98019.44
2023-01-06T17:42:12.941Z,98025.59
2023-01-06T17:44:42.986Z,98032.75
2023-01-06T17:47:23.845Z,98031.72
2023-01-06T17:49:59.218Z,98026.13
2023-01-06T17:52:32.535Z,98034.53
2023-01-06T17:55:22.149Z,98026.38
2023-01-06T17:57:48.934Z,98036.81
2023-01-06T18:00:23.513Z,98036.31
2023-01-06T18:02:55.115Z,98035.06
2023-01-06T18:05:24.925Z,98039.91
2023-01-06T18:08:13.697Z,98034.53
2023-01-06T18:10:46.069Z,98042.72
2023-01-06T18:13:23.522Z,98045.50
2023-01-06T18:15:53.307Z,98044.75
2023-01-06T18:18:27.540Z,98036.81
2023-01-06T18:20:59.165Z,98041.94
2023-01-06T18:23:27.833Z,98048.56
2023-01-06T18:25:57.093Z,98038.13
2023-01-06T18:28:23.949Z,98039.38
2023-01-06T18:31:03.305Z,98037.34
2023-01-06T18:33:30.467Z,98036.09
2023-01-06T18:35:59.894Z,98031.72
2023-01-06T18:38:30.102Z,98033.28
2023-01-06T18:40:57.062Z,98041.69
2023-01-06T18:43:27.905Z,98032.50
2023-01-06T18:45:58.091Z,98038.88
2023-01-06T18:48:27.785Z,98038.13
2023-01-06T18:50:57.198Z,98040.16
2023-01-06T18:53:47.275Z,98039.91
2023-01-06T18:56:21.131Z,98038.34
2023-01-06T18:58:54.517Z,98043.69
2023-01-06T19:01:30.495Z,98048.28
2023-01-06T19:04:16.140Z,98034.72
2023-01-06T19:07:10.034Z,98061.53
2023-01-06T19:09:39.919Z,98048.75
2023-01-06T19:12:26.225Z,98045.97
2023-01-06T19:14:54.099Z,98061.53
2023-01-06T19:17:40.312Z,98059.25
2023-01-06T19:20:15.773Z,98058.50
2023-01-06T19:22:42.979Z,98059.25
2023-01-06T19:25:21.921Z,98056.75
2023-01-06T19:27:50.542Z,98052.63
2023-01-06T19:30:32.605Z,98061.56
2023-01-06T19:33:24.152Z,98068.22
2023-01-06T19:35:56.886Z,98068.72
2023-01-06T19:38:28.404Z,98077.41
2023-01-06T19:40:57.667Z,98068.50
2023-01-06T19:43:30.529Z,98064.69
2023-01-06T19:45:59.462Z,98069.03
2023-01-06T19:48:30.645Z,98056.81
2023-01-06T19:51:22.179Z,98060.88
2023-01-06T19:53:52.229Z,98061.63
2023-01-06T19:56:26.354Z,98057.81
2023-01-06T19:59:03.001Z,98071.56
2023-01-06T20:01:32.942Z,98066.72
2023-01-06T20:04:00.589Z,98079.50
2023-01-06T20:06:27.629Z,98073.09
2023-01-06T20:08:54.537Z,98072.31
2023-01-06T20:11:24.008Z,98072.81
2023-01-06T20:13:51.324Z,98072.06
2023-01-06T20:16:18.567Z,98072.06
2023-01-06T20:18:45.624Z,98070.53
2023-01-06T20:21:12.711Z,98065.41
2023-01-06T20:23:39.856Z,98067.97
2023-01-06T20:26:06.864Z,98066.41
2023-01-06T20:28:33.947Z,98066.41
2023-01-06T20:31:01.022Z,98060.81
2023-01-06T20:33:28.119Z,98066.41
2023-01-06T20:35:55.270Z,98071.25
2023-01-06T20:38:22.214Z,98074.34
2023-01-06T20:40:49.982Z,98076.16
2023-01-06T20:43:17.040Z,98072.56
2023-01-06T20:45:44.091Z,98071.03
2023-01-06T20:48:11.775Z,98069.47
2023-01-06T20:50:39.324Z,98063.88
2023-01-06T20:53:06.285Z,98071.53
2023-01-06T20:55:33.533Z,98071.53
2023-01-06T20:58:00.765Z,98073.34
2023-01-06T21:00:27.735Z,98070.00
2023-01-06T21:02:54.781Z,98074.66
2023-01-06T21:05:21.731Z,98071.31
2023-01-06T21:07:48.658Z,98080.03
2023-01-06T21:10:16.189Z,98075.94
2023-01-06T21:12:43.794Z,98066.28
2023-01-06T21:15:12.020Z,98070.09
2023-01-06T21:17:38.969Z,98076.22
2023-01-06T21:20:06.840Z,98068.56
2023-01-06T21:22:33.943Z,98071.13
2023-01-06T21:25:00.950Z,98068.03
2023-01-06T21:27:27.880Z,98068.03
2023-01-06T21:29:54.809Z,98076.72
2023-01-06T21:32:21.779Z,98074.94
2023-01-06T21:34:48.820Z,98064.97
2023-01-06T21:37:15.746Z,98063.47
2023-01-06T21:39:42.700Z,98062.94
2023-01-06T21:42:28.531Z,98067.00
2023-01-06T21:44:55.812Z,98066.03
2023-01-06T21:47:22.728Z,98057.34
2023-01-06T21:49:49.648Z,98066.03
2023-01-06T21:52:17.397Z,98065.25
2023-01-06T21:54:44.753Z,98072.91
2023-01-06T21:57:12.759Z,98071.66
2023-01-06T21:59:40.212Z,98066.03
2023-01-06T22:02:08.935Z,98056.59
2023-01-06T22:04:35.976Z,98056.88
2023-01-06T22:07:06.630Z,98065.84
2023-01-06T22:09:33.677Z,98063.03
2023-01-06T22:12:04.102Z,98066.09
2023-01-06T22:14:31.773Z,98061.25
2023-01-06T22:17:00.663Z,98064.34
2023-01-06T22:19:29.494Z,98065.84
2023-01-06T22:21:56.899Z,98069.44
2023-01-06T22:24:24.567Z,98070.97
2023-01-06T22:26:51.528Z,98076.59
2023-01-06T22:29:18.560Z,98070.47
2023-01-06T22:31:45.515Z,98074.81
2023-01-06T22:34:12.417Z,98069.72
2023-01-06T22:36:39.519Z,98063.56
2023-01-06T22:39:07.887Z,98077.06
2023-01-06T22:41:34.982Z,98088.53
2023-01-06T22:44:02.009Z,98088.28
2023-01-06T22:46:29.953Z,98082.41
2023-01-06T22:48:56.985Z,98077.78
2023-01-06T22:51:23.939Z,98084.41
2023-01-06T22:53:51.977Z,98074.44
2023-01-06T22:56:18.961Z,98080.59
2023-01-06T22:58:46.090Z,98078.31
2023-01-06T23:01:13.054Z,98079.09
2023-01-06T23:03:40.018Z,98084.19
2023-01-06T23:06:09.597Z,98091.34
2023-01-06T23:08:42.843Z,98093.66
2023-01-06T23:11:14.704Z,98085.25
2023-01-06T23:13:43.060Z,98089.09
2023-01-06T23:16:12.991Z,98080.41
2023-01-06T23:18:42.849Z,98077.06
2023-01-06T23:21:12.370Z,98073.72
2023-01-06T23:23:40.936Z,98071.88
2023-01-06T23:26:11.448Z,98064.41
2023-01-06T23:28:38.428Z,98059.25
2023-01-06T23:31:10.955Z,98070.72
2023-01-06T23:33:45.316Z,98066.13
2023-01-06T23:36:14.403Z,98070.94
2023-01-06T23:38:41.438Z,98072.22
2023-01-06T23:41:19.506Z,98066.84
2023-01-06T23:43:47.205Z,98070.47
2023-01-06T23:46:20.184Z,98075.38
2023-01-06T23:48:48.089Z,98072.81
2023-01-06T23:51:16.501Z,98073.38
2023-01-06T23:53:44.111Z,98070.34
2023-01-06T23:56:15.331Z,98063.72
2023-01-06T23:58:44.481Z,98066.03
